Flight Track Log - Related Links

Times and Time Zones

All times are in EDT time to prevent confusion due to time zone crossing. See the SWA2236 flight status page for this flight to view local times or setup timezone preferences in your user account.

Time Position Orientation Groundspeed Altitude Reporting Facility
EDT Latitude Longitude Course Direction KTS MPH feet Rate Location/Type
Fri 09:16:16 AM 35.0744 -106.5117 67° East 234 269 8,200  Level Albuquerque Center
Fri 09:17:11 AM 35.1000 -106.5675 299° West 239 275 10,500 1,862 Climbing Albuquerque Center
Fri 09:18:12 AM 35.1153 -106.6544 282° West 249 287 11,800 1,426 Climbing Albuquerque Center
Fri 09:19:13 AM 35.1333 -106.7658 281° West 326 375 13,400 2,066 Climbing Albuquerque Center
Fri 09:20:14 AM 35.1519 -106.8831 281° West 358 412 16,000 2,951 Climbing Albuquerque Center
Fri 09:21:15 AM 35.1731 -107.0206 281° West 371 427 19,400 3,049 Climbing Albuquerque Center
Fri 09:22:16 AM 35.1917 -107.1275 282° West 340 391 22,200 2,115 Climbing Albuquerque Center
Fri 09:23:17 AM 35.2122 -107.2708 280° West 385 443 23,700 1,377 Climbing Albuquerque Center
Fri 09:24:18 AM 35.2281 -107.4086 278° West 404 465 25,000 1,438 Climbing Albuquerque Center
Fri 09:25:18 AM 35.2461 -107.5456 279° West 426 490 26,600 1,686 Climbing Albuquerque Center
Fri 09:26:19 AM 35.2644 -107.7133 278° West 441 507 28,400 1,475 Climbing Albuquerque Center
Fri 09:27:20 AM 35.2842 -107.8606 279° West 453 521 29,600 1,180 Climbing Albuquerque Center
Fri 09:28:21 AM 35.3008 -108.0125 278° West 463 533 30,800 1,475 Climbing Albuquerque Center
Fri 09:29:22 AM 35.3217 -108.1928 278° West 472 543 32,600 1,623 Climbing Albuquerque Center
Fri 09:30:23 AM 35.3389 -108.3469 278° West 476 548 34,100 1,525 Climbing Albuquerque Center
Fri 09:31:24 AM 35.3750 -108.4942 287° West 470 541 35,700 1,426 Climbing Albuquerque Center
Fri 09:32:25 AM 35.4203 -108.6656 288° West 470 541 37,000 1,131 Climbing Albuquerque Center
Fri 09:33:26 AM 35.4589 -108.8111 288° West 467 537 38,000 492 Climbing Albuquerque Center
Fri 09:34:27 AM 35.4803 -108.9608 280° West 459 528 38,000  Level Albuquerque Center
Fri 09:35:28 AM 35.4969 -109.1356 277° West 460 529 38,000  Level Albuquerque Center
Fri 09:36:29 AM 35.5139 -109.2853 278° West 460 529 38,000  Level Albuquerque Center
Fri 09:37:30 AM 35.5319 -109.4344 279° West 459 528 38,000  Level Albuquerque Center
Fri 09:38:31 AM 35.5475 -109.6083 276° West 458 527 38,000  Level Albuquerque Center
Fri 09:39:32 AM 35.5633 -109.7561 278° West 457 526 38,000  Level Albuquerque Center
Fri 09:40:33 AM 35.5789 -109.9047 277° West 456 525 38,000  Level Albuquerque Center
Fri 09:41:35 AM 35.5967 -110.0800 277° West 461 531 38,000  Level Albuquerque Center
Fri 09:42:36 AM 35.6108 -110.2286 277° West 460 529 38,000  Level Albuquerque Center
Fri 09:43:37 AM 35.6247 -110.3764 277° West 456 525 38,000  Level Albuquerque Center
Fri 09:44:38 AM 35.6439 -110.5494 278° West 456 525 38,000  Level Albuquerque Center
Fri 09:45:39 AM 35.6581 -110.6978 277° West 456 525 38,000  Level Albuquerque Center
Fri 09:46:40 AM 35.6750 -110.8708 277° West 457 526 38,000  Level Albuquerque Center
Fri 09:47:42 AM 35.6886 -111.0194 276° West 456 525 38,000  Level Albuquerque Center
Fri 09:48:43 AM 35.7039 -111.1694 277° West 460 529 38,000  Level Albuquerque Center
Fri 09:49:44 AM 35.7194 -111.3419 276° West 457 526 38,000  Level Albuquerque Center
Fri 09:50:46 AM 35.7353 -111.5014 277° West 459 528 38,000  Level Albuquerque Center
Fri 09:51:47 AM 35.7494 -111.6544 277° West 457 526 38,000  Level Albuquerque Center
Fri 09:52:49 AM 35.7633 -111.8058 276° West 452 520 38,000  Level Albuquerque Center
Fri 09:53:50 AM 35.7758 -111.9553 276° West 447 514 38,000  Level Albuquerque Center
Fri 09:54:53 AM 35.7892 -112.1053 276° West 445 512 38,000  Level Los Angeles Center
Fri 09:55:55 AM 35.8019 -112.2542 276° West 443 510 38,000  Level Los Angeles Center
Fri 09:56:56 AM 35.8178 -112.4342 276° West 445 512 38,000  Level Los Angeles Center
Fri 09:57:58 AM 35.8297 -112.5842 276° West 447 514 38,000  Level Los Angeles Center
Fri 09:59:00 AM 35.8425 -112.7347 276° West 449 517 38,000  Level Los Angeles Center
Fri 10:00:01 AM 35.8550 -112.8858 276° West 449 517 38,000  Level Los Angeles Center
Fri 10:01:03 AM 35.8669 -113.0383 276° West 453 521 38,000  Level Los Angeles Center
Fri 10:02:05 AM 35.8806 -113.2214 275° West 455 524 38,000  Level Los Angeles Center
Fri 10:03:06 AM 35.8886 -113.3731 274° West 449 517 38,000  Level Los Angeles Center
Fri 10:04:08 AM 35.9022 -113.5233 276° West 446 513 38,000  Level Los Angeles Center
Fri 10:05:10 AM 35.9158 -113.6911 276° West 439 505 38,000  Level Los Angeles Center
Fri 10:06:12 AM 35.9275 -113.8422 275° West 441 507 38,000  Level Los Angeles Center
Fri 10:07:13 AM 35.9378 -113.9936 275° West 441 507 38,000  Level Los Angeles Center
Fri 10:08:15 AM 35.9481 -114.1439 275° West 440 506 38,000  Level Los Angeles Center
Fri 10:09:17 AM 35.9581 -114.2958 275° West 442 509 38,000  Level Los Angeles Center
Fri 10:10:18 AM 35.9692 -114.4467 275° West 440 506 38,000  Level Los Angeles Center
Fri 10:11:20 AM 35.9786 -114.5958 275° West 434 499 38,000  Level Los Angeles Center
Fri 10:12:22 AM 35.9994 -114.7744 278° West 434 499 38,000  Level Los Angeles Center
Fri 10:13:24 AM 36.0522 -114.9167 295° West 453 521 38,000  Level Los Angeles Center
Fri 10:14:25 AM 36.1017 -115.0606 293° West 454 522 38,000  Level Los Angeles Center
Fri 10:15:27 AM 36.1508 -115.2042 293° West 454 522 38,000  Level Los Angeles Center
Fri 10:16:29 AM 36.2017 -115.3494 293° West 456 525 38,000  Level Los Angeles Center
Fri 10:17:31 AM 36.2508 -115.4939 293° West 452 520 38,000  Level Los Angeles Center
Fri 10:18:32 AM 36.3025 -115.6531 292° West 465 535 38,000  Level Los Angeles Center
Fri 10:19:34 AM 36.3531 -115.7975 294° West 457 526 38,000  Level Los Angeles Center
Fri 10:20:36 AM 36.3983 -115.9294 293° West 446 513 38,000  Level Los Angeles Center
Fri 10:21:38 AM 36.4561 -116.1006 293° West 446 513 38,000  Level Los Angeles Center
Fri 10:22:40 AM 36.5008 -116.2344 293° West 447 514 38,000  Level Los Angeles Center
Fri 10:23:41 AM 36.5517 -116.3864 293° West 448 516 38,000  Level Los Angeles Center
Fri 10:24:43 AM 36.5983 -116.5289 292° West 446 513 38,000  Level Los Angeles Center
Fri 10:25:45 AM 36.6456 -116.6733 292° West 449 517 38,000  Level Los Angeles Center
Fri 10:26:47 AM 36.6939 -116.8186 293° West 451 519 38,000  Level Los Angeles Center
Fri 10:27:49 AM 36.7461 -116.9783 292° West 449 517 38,000  Level Los Angeles Center
Fri 10:28:51 AM 36.7969 -117.1408 291° West 457 526 38,000  Level Los Angeles Center
Fri 10:29:53 AM 36.8439 -117.2864 292° West 453 521 38,000  Level Los Angeles Center
Fri 10:30:54 AM 36.8908 -117.4311 292° West 450 518 38,000  Level Los Angeles Center
Fri 10:31:56 AM 36.9372 -117.5767 292° West 450 518 38,000  Level Los Angeles Center
Fri 10:32:43 AM 36.9719 -117.6922 291° West 447 514 38,000  Level Oakland Center
Fri 10:33:45 AM 37.0172 -117.8356 292° West 443 510 38,000  Level Oakland Center
Fri 10:34:46 AM 37.0625 -117.9786 292° West 442 509 38,000  Level Oakland Center
Fri 10:35:47 AM 37.1078 -118.1217 292° West 441 507 38,000  Level Oakland Center
Fri 10:36:49 AM 37.1508 -118.2642 291° West 437 503 38,000  Level Oakland Center
Fri 10:37:50 AM 37.1956 -118.4078 291° West 440 506 38,000  Level Oakland Center
Fri 10:38:51 AM 37.2400 -118.5506 291° West 440 506 38,000  Level Oakland Center
Fri 10:39:53 AM 37.2825 -118.6928 291° West 438 504 38,000  Level Oakland Center
Fri 10:40:54 AM 37.3350 -118.8644 291° West 440 506 38,000  Level Oakland Center
Fri 10:41:55 AM 37.3792 -119.0078 291° West 441 507 38,000  Level Oakland Center
Fri 10:42:57 AM 37.4222 -119.1517 291° West 442 509 38,000  Level Oakland Center
Fri 10:43:58 AM 37.4647 -119.2950 291° West 440 506 38,000  Level Oakland Center
Fri 10:44:59 AM 37.5072 -119.4381 291° West 439 505 38,000  Level Oakland Center
Fri 10:46:01 AM 37.5525 -119.5889 291° West 440 506 38,000  Level Oakland Center
Fri 10:47:02 AM 37.5950 -119.7317 291° West 433 498 38,000  Level Oakland Center
Fri 10:48:03 AM 37.6367 -119.8731 290° West 429 494 38,000 -1,024 Level Oakland Center
Fri 10:49:05 AM 37.6778 -120.0150 290° West 430 495 35,900 -2,585 Descending Oakland Center
Fri 10:50:06 AM 37.7189 -120.1592 290° West 436 502 32,700 -2,878 Descending Oakland Center
Fri 10:51:08 AM 37.7622 -120.3056 291° West 443 510 30,000 -2,732 Descending Oakland Center
Fri 10:52:09 AM 37.8117 -120.4753 290° West 428 493 27,100 -2,508 Descending Oakland Center
Fri 10:53:10 AM 37.8500 -120.6136 289° West 418 481 24,900 -2,146 Descending Oakland Center
Fri 10:54:12 AM 37.8594 -120.7497 275° West 398 458 22,700 -2,195 Descending Oakland Center
Fri 10:55:13 AM 37.8433 -120.8828 261° West 385 443 20,400 -2,537 Descending Oakland Center
Fri 10:56:15 AM 37.8122 -121.0133 253° West 389 448 17,500 -2,244 Descending Oakland Center
Fri 10:57:16 AM 37.7819 -121.1392 253° West 376 433 15,800 -1,869 Descending Oakland Center
Fri 10:58:17 AM 37.7536 -121.2564 253° West 354 407 13,700 -1,839 Descending Oakland Center
Fri 10:59:20 AM 37.7167 -121.3833 250° West 333 383 12,000 -1,512 Descending Northern Cal TRACON
Fri 11:00:20 AM 37.7000 -121.5000 260° West 301 346 10,600 -1,200 Descending Northern Cal TRACON
Fri 11:01:20 AM 37.6667 -121.5833 243° Southwest 268 308 9,600 -1,000 Descending Northern Cal TRACON
Fri 11:02:14 AM 37.6333 -121.6333 230° Southwest 240 276 8,700 -1,056 Descending Northern Cal TRACON
Fri 11:03:08 AM 37.5833 -121.6667 208° Southwest 226 260 7,700 -895 Descending Northern Cal TRACON
Fri 11:04:08 AM 37.6167 -121.7333 302° West 223 257 7,000 -350 Descending Northern Cal TRACON
Fri 11:05:08 AM 37.6667 -121.7833 322° Northwest 221 254 7,000 -316 Level Northern Cal TRACON
Fri 11:06:02 AM 37.7000 -121.8333 310° West 220 253 6,400 -526 Descending Northern Cal TRACON
Fri 11:07:02 AM 37.6667 -121.8667 218° Southwest 216 249 6,000 -684 Descending Northern Cal TRACON
Fri 11:07:56 AM 37.6333 -121.9000 218° Southwest 209 241 5,100 -1,053 Descending Northern Cal TRACON
Fri 11:08:56 AM 37.5833 -121.9500 218° Southwest 201 231 4,000 -632 Descending Northern Cal TRACON
Fri 11:09:50 AM 37.5667 -122.0000 247° West 204 235 3,900 -526 Descending Northern Cal TRACON
Fri 11:10:50 AM 37.6000 -122.0667 302° West 200 230 3,000 -900 Descending Northern Cal TRACON
Fri 11:11:50 AM 37.6333 -122.1167 310° West 180 207 2,100 -850 Descending Northern Cal TRACON
Fri 11:12:50 AM 37.6667 -122.1500 322° Northwest 142 163 1,300 -800 Descending Northern Cal TRACON
Fri 11:13:50 AM 37.6833 -122.1833 302° West 137 158 500 -632 Descending Northern Cal TRACON
Fri 11:14:44 AM 37.7000 -122.2167 302° West 137 158 100 -444 Descending Northern Cal TRACON

Login

Don't have an account? Register now (free) for customized features, flight alerts, and more!